createdAt,value
2022-12-08T00:01:42.835Z,96979.47
2022-12-08T00:04:10.318Z,96987.09
2022-12-08T00:06:59.343Z,96961.72
2022-12-08T00:09:37.975Z,96976.72
2022-12-08T00:12:13.078Z,96973.19
2022-12-08T00:14:42.474Z,96975.66
2022-12-08T00:17:11.922Z,96978.03
2022-12-08T00:19:39.475Z,96982.75
2022-12-08T00:22:07.796Z,96971.38
2022-12-08T00:24:40.530Z,96978.88
2022-12-08T00:27:12.441Z,96976.53
2022-12-08T00:29:39.630Z,96978.38
2022-12-08T00:32:07.175Z,96986.31
2022-12-08T00:34:34.337Z,96988.16
2022-12-08T00:37:01.307Z,96972.22
2022-12-08T00:39:28.209Z,96992.09
2022-12-08T00:42:13.351Z,96962.69
2022-12-08T00:44:45.818Z,96978.66
2022-12-08T00:47:13.772Z,96980.91
2022-12-08T00:49:40.867Z,96976.16
2022-12-08T00:52:07.801Z,96968.16
2022-12-08T00:54:34.811Z,96967.81
2022-12-08T00:57:01.821Z,96975.50
2022-12-08T00:59:28.675Z,96966.19
2022-12-08T01:01:55.561Z,96968.63
2022-12-08T01:04:22.723Z,96967.81
2022-12-08T01:06:49.942Z,96965.34
2022-12-08T01:09:18.331Z,96972.28
2022-12-08T01:11:45.956Z,96957.72
2022-12-08T01:14:13.061Z,96966.19
2022-12-08T01:16:41.686Z,96944.09
2022-12-08T01:19:11.869Z,96969.53
2022-12-08T01:21:38.849Z,96971.97
2022-12-08T01:24:06.265Z,96960.56
2022-12-08T01:26:33.198Z,96960.31
2022-12-08T01:29:00.046Z,96959.16
2022-12-08T01:31:27.350Z,96949.94
2022-12-08T01:33:54.366Z,96973.25
2022-12-08T01:36:24.138Z,96958.81
2022-12-08T01:38:52.149Z,96974.53
2022-12-08T01:41:22.471Z,96956.88
2022-12-08T01:43:58.439Z,96976.75
2022-12-08T01:46:26.578Z,96977.09
2022-12-08T01:49:07.892Z,96966.97
2022-12-08T01:51:41.925Z,96964.75
2022-12-08T01:54:09.408Z,96973.13
2022-12-08T01:56:43.396Z,96967.03
2022-12-08T01:59:12.380Z,96974.28
2022-12-08T02:01:40.007Z,96964.56
2022-12-08T02:04:06.925Z,96955.03
2022-12-08T02:06:39.758Z,96961.56
2022-12-08T02:09:07.502Z,96964.09
2022-12-08T02:11:34.449Z,96972.69
2022-12-08T02:14:08.348Z,96967.94
2022-12-08T02:16:44.173Z,96966.94
2022-12-08T02:19:48.147Z,96963.53
2022-12-08T02:22:20.338Z,96964.94
2022-12-08T02:25:09.770Z,96962.19
2022-12-08T02:27:53.378Z,96965.81
2022-12-08T02:30:20.311Z,96967.13
2022-12-08T02:32:56.245Z,96957.16
2022-12-08T02:36:07.543Z,96963.34
2022-12-08T02:38:46.373Z,96962.19
2022-12-08T02:41:24.652Z,96948.75
2022-12-08T02:44:46.998Z,96942.50
2022-12-08T02:47:18.001Z,96957.25
2022-12-08T02:49:45.281Z,96955.34
2022-12-08T02:52:12.120Z,96969.22
2022-12-08T02:54:46.963Z,96956.34
2022-12-08T02:57:38.949Z,96961.38
2022-12-08T03:00:08.889Z,96958.19
2022-12-08T03:03:05.115Z,96969.31
2022-12-08T03:09:27.616Z,96945.69
2022-12-08T03:12:06.761Z,96964.41
2022-12-08T03:14:34.942Z,96973.78
2022-12-08T03:17:03.340Z,96954.41
2022-12-08T03:19:35.685Z,96969.78
2022-12-08T03:22:04.984Z,96962.22
2022-12-08T03:24:37.909Z,96972.47
2022-12-08T03:27:09.848Z,96962.44
2022-12-08T03:29:36.806Z,96965.78
2022-12-08T03:32:19.398Z,96974.09
2022-12-08T03:34:48.122Z,96985.16
2022-12-08T03:37:15.417Z,96941.97
2022-12-08T03:39:42.566Z,96982.25
2022-12-08T03:42:09.485Z,96954.41
2022-12-08T03:44:36.339Z,96965.94
2022-12-08T03:47:03.244Z,96976.03
2022-12-08T03:49:30.117Z,96961.66
2022-12-08T03:52:04.116Z,96967.28
2022-12-08T03:54:33.493Z,96979.00
2022-12-08T03:57:00.419Z,96982.75
2022-12-08T03:59:27.261Z,96977.00
2022-12-08T04:01:54.141Z,96966.19
2022-12-08T04:04:21.076Z,96969.47
2022-12-08T04:06:47.945Z,96968.88
2022-12-08T04:09:14.846Z,96979.66
2022-12-08T04:11:41.723Z,96973.59
2022-12-08T04:14:08.687Z,96979.16
2022-12-08T04:16:35.692Z,96977.84
2022-12-08T04:19:02.679Z,96990.66
2022-12-08T04:21:29.623Z,96984.75
2022-12-08T04:24:00.990Z,96986.78
2022-12-08T04:26:28.506Z,96975.84
2022-12-08T04:28:55.413Z,96968.25
2022-12-08T04:31:22.339Z,96971.63
2022-12-08T04:33:49.241Z,96999.50
2022-12-08T04:36:16.164Z,97009.41
2022-12-08T04:38:42.994Z,97008.44
2022-12-08T04:41:09.854Z,97003.41
2022-12-08T04:43:37.134Z,96995.16
2022-12-08T04:46:09.060Z,97002.03
2022-12-08T04:48:40.372Z,97010.47
2022-12-08T04:51:07.951Z,96996.91
2022-12-08T04:53:34.784Z,97011.09
2022-12-08T04:56:01.618Z,96995.09
2022-12-08T04:58:28.509Z,96997.56
2022-12-08T05:00:55.410Z,97006.84
2022-12-08T05:03:28.357Z,97005.03
2022-12-08T05:05:56.012Z,97009.41
2022-12-08T05:08:23.093Z,97012.63
2022-12-08T05:10:50.069Z,97010.69
2022-12-08T05:13:16.985Z,96998.59
2022-12-08T05:15:44.151Z,97002.84
2022-12-08T05:18:11.327Z,97002.97
2022-12-08T05:20:38.185Z,96995.19
2022-12-08T05:23:05.160Z,96997.50
2022-12-08T05:25:32.087Z,97001.84
2022-12-08T05:28:24.808Z,96998.19
2022-12-08T05:30:46.374Z,96987.78
2022-12-08T05:33:13.241Z,97013.03
2022-12-08T05:35:40.292Z,96990.25
2022-12-08T05:38:07.536Z,97015.41
2022-12-08T05:40:34.511Z,97010.28
2022-12-08T05:43:01.344Z,97013.69
2022-12-08T05:45:28.324Z,97020.22
2022-12-08T05:47:55.320Z,97011.53
2022-12-08T05:50:22.199Z,97009.97
2022-12-08T05:52:49.062Z,97026.00
2022-12-08T05:55:16.074Z,97029.38
2022-12-08T05:57:43.188Z,97039.28
2022-12-08T06:00:10.683Z,97029.13
2022-12-08T06:02:40.870Z,96986.16
2022-12-08T06:05:08.377Z,97031.81
2022-12-08T06:07:35.521Z,97028.34
2022-12-08T06:10:03.032Z,97011.88
2022-12-08T06:12:30.322Z,97021.44
2022-12-08T06:14:57.246Z,97052.50
2022-12-08T06:17:24.129Z,97041.41
2022-12-08T06:19:50.997Z,97055.19
2022-12-08T06:22:17.868Z,97035.63
2022-12-08T06:24:44.733Z,97033.41
2022-12-08T06:27:11.660Z,97020.78
2022-12-08T06:29:38.508Z,97037.81
2022-12-08T06:32:05.676Z,97043.84
2022-12-08T06:34:32.581Z,97023.78
2022-12-08T06:36:59.373Z,97045.72
2022-12-08T06:39:26.332Z,97046.38
2022-12-08T06:42:11.409Z,97039.63
2022-12-08T06:44:38.901Z,97042.09
2022-12-08T06:47:05.838Z,97042.06
2022-12-08T06:49:32.666Z,97044.38
2022-12-08T06:51:59.563Z,97043.97
2022-12-08T06:54:26.826Z,97040.41
2022-12-08T06:56:53.624Z,97032.59
2022-12-08T06:59:20.497Z,97008.75
2022-12-08T07:01:47.441Z,97044.00
2022-12-08T07:04:14.432Z,97052.94
2022-12-08T07:06:41.355Z,97063.91
2022-12-08T07:09:08.200Z,97056.78
2022-12-08T07:11:35.076Z,97061.69
2022-12-08T07:14:02.002Z,97053.31
2022-12-08T07:16:29.232Z,97043.03
2022-12-08T07:18:56.157Z,97068.91
2022-12-08T07:21:23.459Z,97071.84
2022-12-08T07:23:55.961Z,97075.78
2022-12-08T07:26:25.357Z,97083.94
2022-12-08T07:28:52.437Z,97083.28
2022-12-08T07:31:22.357Z,97091.19
2022-12-08T07:33:50.409Z,97094.84
2022-12-08T07:36:17.605Z,97108.41
2022-12-08T07:38:45.059Z,97055.63
2022-12-08T07:41:13.794Z,97088.50
2022-12-08T07:43:41.941Z,97118.00
2022-12-08T07:46:12.609Z,97122.41
2022-12-08T07:48:39.610Z,97123.38
2022-12-08T07:51:07.111Z,97109.88
2022-12-08T07:53:34.328Z,97118.28
2022-12-08T07:56:01.303Z,97105.72
2022-12-08T07:58:28.264Z,97120.97
2022-12-08T08:00:55.265Z,97085.25
2022-12-08T08:03:22.452Z,97127.94
2022-12-08T08:05:50.108Z,97131.19
2022-12-08T08:08:17.749Z,97120.97
2022-12-08T08:10:46.299Z,97123.59
2022-12-08T08:13:13.806Z,97123.75
2022-12-08T08:15:40.993Z,97119.88
2022-12-08T08:18:07.953Z,97122.34
2022-12-08T08:20:34.840Z,97089.78
2022-12-08T08:23:01.768Z,97134.44
2022-12-08T08:25:28.880Z,97127.78
2022-12-08T08:27:55.882Z,97116.25
2022-12-08T08:30:22.896Z,97113.81
2022-12-08T08:32:50.574Z,97088.72
2022-12-08T08:35:17.540Z,97123.84
2022-12-08T08:37:48.933Z,97127.16
2022-12-08T08:40:17.813Z,97113.88
2022-12-08T08:42:44.668Z,97096.34
2022-12-08T08:45:11.557Z,97094.16
2022-12-08T08:47:38.525Z,97110.69
2022-12-08T08:50:06.409Z,97101.09
2022-12-08T08:52:33.494Z,97100.91
2022-12-08T08:55:00.435Z,97098.84
2022-12-08T08:57:27.511Z,97093.91
2022-12-08T08:59:54.579Z,97078.47
2022-12-08T09:02:25.205Z,97110.63
2022-12-08T09:04:52.867Z,97097.69
2022-12-08T09:07:20.040Z,97095.47
2022-12-08T09:09:47.067Z,97101.31
2022-12-08T09:12:14.033Z,97088.44
2022-12-08T09:14:40.919Z,97094.25
2022-12-08T09:17:08.513Z,97091.81
2022-12-08T09:19:35.420Z,97090.94
2022-12-08T09:22:02.257Z,97076.28
2022-12-08T09:24:29.161Z,97073.56
2022-12-08T09:26:56.070Z,97090.22
2022-12-08T09:29:23.057Z,97074.59
2022-12-08T09:31:50.226Z,97080.78
2022-12-08T09:34:17.357Z,97077.06
2022-12-08T09:36:44.223Z,97070.31
2022-12-08T09:39:11.091Z,97072.94
2022-12-08T09:41:50.067Z,97060.00
2022-12-08T09:44:40.339Z,97071.34
2022-12-08T09:47:16.284Z,97057.44
2022-12-08T09:49:50.628Z,97063.97
2022-12-08T09:52:26.645Z,97062.19
2022-12-08T09:54:59.019Z,97050.41
2022-12-08T09:57:26.212Z,97045.56
2022-12-08T09:59:58.428Z,97062.28
2022-12-08T10:02:29.231Z,97065.00
2022-12-08T10:04:58.196Z,97052.88
2022-12-08T10:07:39.547Z,97058.31
2022-12-08T10:10:15.356Z,97055.75
2022-12-08T10:13:08.372Z,97051.50
2022-12-08T10:15:44.278Z,97054.88
2022-12-08T10:18:18.894Z,97046.44
2022-12-08T10:20:49.633Z,97042.13
2022-12-08T10:23:50.306Z,97041.66
2022-12-08T10:26:20.112Z,97007.53
2022-12-08T10:28:47.170Z,97022.63
2022-12-08T10:31:21.693Z,97030.91
2022-12-08T10:33:55.239Z,97025.38
2022-12-08T10:36:22.185Z,96977.94
2022-12-08T10:38:49.074Z,97000.28
2022-12-08T10:41:18.204Z,97022.50
2022-12-08T10:43:53.005Z,97002.34
2022-12-08T10:46:28.422Z,97007.69
2022-12-08T10:49:16.868Z,97005.75
2022-12-08T10:51:43.866Z,96982.16
2022-12-08T10:54:34.208Z,97017.34
2022-12-08T10:57:03.537Z,97015.53
2022-12-08T10:59:33.917Z,97018.91
2022-12-08T11:02:01.204Z,97000.63
2022-12-08T11:04:36.527Z,97014.69
2022-12-08T11:07:06.439Z,97008.66
2022-12-08T11:09:50.883Z,97008.09
2022-12-08T11:12:20.498Z,97006.00
2022-12-08T11:14:54.531Z,97009.94
2022-12-08T11:17:27.186Z,96998.03
2022-12-08T11:20:01.703Z,97008.03
2022-12-08T11:22:38.770Z,97006.16
2022-12-08T11:25:08.551Z,96997.13
2022-12-08T11:27:38.537Z,96991.22
2022-12-08T11:30:26.173Z,96970.03
2022-12-08T11:33:23.980Z,96986.22
2022-12-08T11:36:10.217Z,96970.13
2022-12-08T11:38:41.997Z,96977.50
2022-12-08T11:41:15.834Z,96979.13
2022-12-08T11:44:01.665Z,96971.25
2022-12-08T11:46:40.402Z,96971.16
2022-12-08T11:49:13.379Z,96932.03
2022-12-08T11:51:44.524Z,96947.44
2022-12-08T11:54:11.742Z,96956.84
2022-12-08T11:56:43.036Z,96945.47
2022-12-08T11:59:28.940Z,96941.59
2022-12-08T12:01:57.934Z,96958.59
2022-12-08T12:04:31.022Z,96945.81
2022-12-08T12:07:09.855Z,96936.94
2022-12-08T12:09:40.641Z,96950.13
2022-12-08T12:12:25.925Z,96948.38
2022-12-08T12:15:07.720Z,96952.19
2022-12-08T12:17:47.830Z,96951.94
2022-12-08T12:20:28.596Z,96942.63
2022-12-08T12:23:37.259Z,96942.63
2022-12-08T12:26:09.009Z,96954.72
2022-12-08T12:28:49.830Z,96957.88
2022-12-08T12:31:21.880Z,96964.00
2022-12-08T12:33:51.166Z,96958.91
2022-12-08T12:36:18.305Z,96967.78
2022-12-08T12:39:07.787Z,96969.00
2022-12-08T12:41:51.986Z,96961.75
2022-12-08T12:44:18.840Z,96965.09
2022-12-08T12:46:48.848Z,96965.22
2022-12-08T12:49:40.782Z,96965.34
2022-12-08T12:52:16.976Z,96972.25
2022-12-08T12:55:04.765Z,96962.44
2022-12-08T12:57:49.841Z,96970.50
2022-12-08T13:00:22.996Z,96966.19
2022-12-08T13:02:51.822Z,96959.75
2022-12-08T13:05:29.649Z,96969.22
2022-12-08T13:07:59.403Z,96963.22
2022-12-08T13:10:33.991Z,96966.72
2022-12-08T13:13:03.866Z,96973.53
2022-12-08T13:15:36.636Z,96966.41
2022-12-08T13:18:04.781Z,96903.19
2022-12-08T13:20:43.226Z,96962.94
2022-12-08T13:23:27.803Z,96962.09
2022-12-08T13:26:15.158Z,96963.53
2022-12-08T13:29:07.122Z,96966.47
2022-12-08T13:31:49.846Z,96972.78
2022-12-08T13:34:20.263Z,96968.03
2022-12-08T13:36:50.164Z,96968.97
2022-12-08T13:39:25.682Z,96972.19
2022-12-08T13:42:00.495Z,96965.09
2022-12-08T13:45:43.534Z,96961.41
2022-12-08T13:48:30.190Z,96977.31
2022-12-08T13:57:32.918Z,96972.44
2022-12-08T14:00:02.355Z,96975.19
2022-12-08T14:02:47.746Z,96968.88
2022-12-08T14:05:34.649Z,96970.44
2022-12-08T14:08:42.984Z,96963.47
2022-12-08T14:11:07.577Z,96956.13
2022-12-08T14:13:34.744Z,96971.03
2022-12-08T14:16:02.477Z,96929.09
2022-12-08T14:18:31.916Z,96973.94
2022-12-08T14:21:20.358Z,96931.50
2022-12-08T14:23:48.170Z,96948.00
2022-12-08T14:26:15.130Z,96945.50
2022-12-08T14:28:45.171Z,96958.00
2022-12-08T14:31:14.722Z,96952.31
2022-12-08T14:33:42.953Z,96966.78
2022-12-08T14:36:11.022Z,96979.63
2022-12-08T14:38:38.263Z,96972.72
2022-12-08T14:41:07.978Z,96979.69
2022-12-08T14:43:35.044Z,96964.03
2022-12-08T14:46:18.842Z,96984.91
2022-12-08T14:48:45.920Z,96987.50
2022-12-08T14:51:18.782Z,96987.56
2022-12-08T14:53:56.621Z,96987.34
2022-12-08T14:56:26.446Z,96984.91
2022-12-08T14:59:03.200Z,96986.47
2022-12-08T15:01:30.676Z,96988.03
2022-12-08T15:04:07.133Z,96992.66
2022-12-08T15:06:34.391Z,96983.47
2022-12-08T15:09:29.933Z,96989.91
2022-12-08T15:12:24.695Z,96979.28
2022-12-08T15:15:14.477Z,96980.09
2022-12-08T15:17:47.547Z,96983.00
2022-12-08T15:20:51.825Z,96979.47
2022-12-08T15:23:29.665Z,96979.47
2022-12-08T15:25:57.432Z,96976.50
2022-12-08T15:28:30.269Z,96970.28
2022-12-08T15:30:58.598Z,96968.00
2022-12-08T15:33:25.881Z,96958.03
2022-12-08T15:35:53.071Z,96970.69
2022-12-08T15:38:26.979Z,96982.47
2022-12-08T15:40:54.819Z,96989.44
2022-12-08T15:43:22.815Z,96947.16
2022-12-08T15:45:59.884Z,96941.13
2022-12-08T15:48:30.750Z,96983.00
2022-12-08T15:50:58.420Z,96974.72
2022-12-08T15:53:25.745Z,96970.34
2022-12-08T15:56:25.628Z,96972.69
2022-12-08T15:58:56.673Z,96967.75
2022-12-08T16:01:24.299Z,96969.31
2022-12-08T16:09:38.588Z,96968.72
2022-12-08T16:12:25.353Z,96969.22
2022-12-08T16:17:40.672Z,96984.91
2022-12-08T16:20:18.073Z,96977.34
2022-12-08T16:23:13.380Z,96984.56
2022-12-08T16:26:00.045Z,96965.72
2022-12-08T16:28:52.975Z,96946.44
2022-12-08T16:31:15.086Z,96986.00
2022-12-08T16:33:43.568Z,96985.75
2022-12-08T16:36:11.357Z,96978.00
2022-12-08T16:38:38.265Z,96985.63
2022-12-08T16:41:23.835Z,96991.44
2022-12-08T16:43:51.292Z,96963.06
2022-12-08T16:46:25.994Z,96993.25
2022-12-08T16:48:52.907Z,96990.78
2022-12-08T16:51:26.657Z,96998.34
2022-12-08T16:53:53.925Z,96979.81
2022-12-08T16:56:22.286Z,96979.84
2022-12-08T16:58:51.147Z,96983.69
2022-12-08T17:07:59.358Z,96980.59
2022-12-08T17:10:28.872Z,96989.13
2022-12-08T17:12:56.618Z,96984.97
2022-12-08T17:15:25.721Z,96987.56
2022-12-08T17:17:55.896Z,96950.22
2022-12-08T17:20:25.229Z,96990.53
2022-12-08T17:22:57.806Z,96990.78
2022-12-08T17:25:26.080Z,96989.75
2022-12-08T17:27:53.028Z,96968.38
2022-12-08T17:30:20.032Z,96990.78
2022-12-08T17:32:50.011Z,96989.06
2022-12-08T17:35:16.868Z,96985.09
2022-12-08T17:37:43.997Z,96980.00
2022-12-08T17:40:11.570Z,96987.13
2022-12-08T17:42:39.672Z,96983.66
2022-12-08T17:45:08.091Z,96983.53
2022-12-08T17:47:35.708Z,96967.34
2022-12-08T17:50:02.971Z,96973.34
2022-12-08T17:52:30.799Z,96998.59
2022-12-08T17:54:57.714Z,97007.03
2022-12-08T17:57:24.676Z,96995.56
2022-12-08T17:59:51.547Z,96981.19
2022-12-08T18:02:18.469Z,96981.88
2022-12-08T18:04:45.529Z,96979.41
2022-12-08T18:07:12.437Z,96984.31
2022-12-08T18:09:39.382Z,96975.78
2022-12-08T18:12:06.508Z,96979.53
2022-12-08T18:14:33.492Z,96981.88
2022-12-08T18:17:00.599Z,96986.00
2022-12-08T18:19:27.971Z,96959.16
2022-12-08T18:21:54.899Z,96963.44
2022-12-08T18:24:23.473Z,96982.91
2022-12-08T18:26:56.255Z,96975.19
2022-12-08T18:29:23.800Z,96984.69
2022-12-08T18:31:51.036Z,96979.53
2022-12-08T18:34:21.800Z,96976.59
2022-12-08T18:36:49.126Z,96983.28
2022-12-08T18:39:33.882Z,96986.72
2022-12-08T18:42:22.744Z,96970.75
2022-12-08T18:44:57.129Z,96974.47
2022-12-08T18:47:24.304Z,96977.66
2022-12-08T18:49:53.726Z,96984.53
2022-12-08T18:52:28.266Z,96969.84
2022-12-08T18:55:06.259Z,96981.28
2022-12-08T18:57:34.303Z,96982.56
2022-12-08T19:00:02.709Z,96975.25
2022-12-08T19:02:31.079Z,96984.47
2022-12-08T19:04:58.055Z,96991.44
2022-12-08T19:07:24.910Z,96976.13
2022-12-08T19:09:51.776Z,96995.09
2022-12-08T19:12:18.682Z,97002.63
2022-12-08T19:14:45.694Z,96998.94
2022-12-08T19:17:12.705Z,96994.63
2022-12-08T19:19:39.598Z,97002.84
2022-12-08T19:22:06.494Z,96968.19
2022-12-08T19:24:34.888Z,96987.66
2022-12-08T19:27:01.937Z,96990.19
2022-12-08T19:29:28.997Z,96987.69
2022-12-08T19:31:55.904Z,96985.63
2022-12-08T19:34:25.334Z,96987.91
2022-12-08T19:36:52.290Z,96954.78
2022-12-08T19:39:40.141Z,96995.75
2022-12-08T19:42:34.762Z,96978.50
2022-12-08T19:45:10.148Z,96999.13
2022-12-08T19:47:37.139Z,96988.59
2022-12-08T19:50:24.320Z,96984.09
2022-12-08T19:52:54.568Z,96983.59
2022-12-08T19:55:24.830Z,96981.91
2022-12-08T19:57:52.707Z,96984.31
2022-12-08T20:00:21.851Z,96984.78
2022-12-08T20:02:48.910Z,96990.19
2022-12-08T20:05:16.025Z,96986.59
2022-12-08T20:07:43.008Z,96989.09
2022-12-08T20:10:28.219Z,96990.72
2022-12-08T20:13:16.134Z,96978.84
2022-12-08T20:15:43.703Z,96994.63
2022-12-08T20:18:12.388Z,96996.66
2022-12-08T20:20:40.258Z,96992.28
2022-12-08T20:23:07.456Z,97001.66
2022-12-08T20:25:37.212Z,96999.31
2022-12-08T20:28:04.477Z,97006.66
2022-12-08T20:30:31.410Z,97003.94
2022-12-08T20:32:58.374Z,97010.25
2022-12-08T20:35:25.282Z,97005.88
2022-12-08T20:37:52.221Z,97008.22
2022-12-08T20:40:19.251Z,96989.38
2022-12-08T20:42:46.497Z,96989.66
2022-12-08T20:45:13.528Z,97004.97
2022-12-08T20:47:40.408Z,97009.22
2022-12-08T20:50:08.581Z,96995.59
2022-12-08T20:52:37.936Z,96999.00
2022-12-08T20:55:06.658Z,96998.22
2022-12-08T20:57:34.057Z,96979.72
2022-12-08T21:00:01.075Z,96970.63
2022-12-08T21:02:28.193Z,96997.44
2022-12-08T21:04:55.339Z,96995.81
2022-12-08T21:07:22.280Z,96981.94
2022-12-08T21:09:49.369Z,96991.06
2022-12-08T21:12:16.448Z,96999.56
2022-12-08T21:14:43.818Z,97003.28
2022-12-08T21:17:11.106Z,97014.19
2022-12-08T21:19:38.298Z,97002.97
2022-12-08T21:22:05.331Z,96999.00
2022-12-08T21:24:34.320Z,97003.38
2022-12-08T21:27:01.854Z,97010.63
2022-12-08T21:29:28.995Z,97008.31
2022-12-08T21:32:00.204Z,96997.47
2022-12-08T21:34:31.914Z,97000.22
2022-12-08T21:36:59.118Z,96999.34
2022-12-08T21:39:26.849Z,96990.25
2022-12-08T21:42:12.782Z,97008.75
2022-12-08T21:44:40.436Z,97011.66
2022-12-08T21:47:08.036Z,96998.78
2022-12-08T21:49:37.622Z,97007.13
2022-12-08T21:52:04.637Z,96990.25
2022-12-08T21:54:31.540Z,97004.44
2022-12-08T21:56:58.661Z,96999.03
2022-12-08T21:59:25.667Z,97000.75
2022-12-08T22:01:52.723Z,96996.53
2022-12-08T22:04:21.840Z,97000.75
2022-12-08T22:06:49.068Z,96958.06
2022-12-08T22:09:16.105Z,96970.75
2022-12-08T22:11:43.923Z,97015.59
2022-12-08T22:14:14.838Z,97014.25
2022-12-08T22:16:43.824Z,96999.06
2022-12-08T22:19:11.363Z,97003.31
2022-12-08T22:21:38.469Z,97009.72
2022-12-08T22:24:06.239Z,97010.50
2022-12-08T22:26:33.657Z,97002.25
2022-12-08T22:29:00.620Z,96998.56
2022-12-08T22:31:28.115Z,96983.94
2022-12-08T22:33:55.781Z,96974.19
2022-12-08T22:36:25.068Z,96965.03
2022-12-08T22:38:53.399Z,96973.88
2022-12-08T22:41:21.756Z,96985.84
2022-12-08T22:43:51.318Z,96982.97
2022-12-08T22:46:26.855Z,96972.28
2022-12-08T22:48:54.856Z,96977.16
2022-12-08T22:51:22.067Z,96972.75
2022-12-08T22:53:49.683Z,96947.97
2022-12-08T22:56:17.660Z,96960.53
2022-12-08T22:58:45.540Z,96945.06
2022-12-08T23:01:23.118Z,96961.22
2022-12-08T23:03:50.225Z,96954.13
2022-12-08T23:06:17.388Z,96977.16
2022-12-08T23:08:45.192Z,96954.72
2022-12-08T23:11:12.892Z,96960.00
2022-12-08T23:13:42.256Z,96949.13
2022-12-08T23:16:10.982Z,96952.53
2022-12-08T23:18:42.189Z,96968.63
2022-12-08T23:21:15.722Z,96955.84
2022-12-08T23:23:42.904Z,96954.28
2022-12-08T23:26:28.150Z,96977.56
2022-12-08T23:28:55.674Z,96983.03
2022-12-08T23:31:23.115Z,96986.78
2022-12-08T23:33:50.571Z,96986.13
2022-12-08T23:36:19.934Z,96969.09
2022-12-08T23:38:47.281Z,96955.19
2022-12-08T23:41:16.033Z,96984.56
2022-12-08T23:43:48.848Z,96993.66
2022-12-08T23:46:17.740Z,96962.56
2022-12-08T23:48:44.731Z,96981.78
2022-12-08T23:51:12.635Z,96988.75
2022-12-08T23:53:40.142Z,96995.47
2022-12-08T23:56:10.116Z,96991.59
2022-12-08T23:58:37.186Z,96997.63
